createdAt,value
2022-08-17T00:01:31.445Z,76.07
2022-08-17T00:04:19.058Z,76.19
2022-08-17T00:06:46.065Z,76.19
2022-08-17T00:09:18.925Z,75.83
2022-08-17T00:12:35.476Z,76.42
2022-08-17T00:14:36.014Z,75.78
2022-08-17T00:17:04.570Z,75.20
2022-08-17T00:19:32.603Z,75.53
2022-08-17T00:22:33.912Z,75.08
2022-08-17T00:24:47.091Z,75.38
2022-08-17T00:27:13.536Z,75.36
2022-08-17T00:29:40.077Z,75.05
2022-08-17T00:33:15.072Z,75.41
2022-08-17T00:34:55.371Z,75.08
2022-08-17T00:37:21.798Z,75.39
2022-08-17T00:39:48.239Z,75.49
2022-08-17T00:42:18.169Z,75.72
2022-08-17T00:44:45.331Z,75.45
2022-08-17T00:47:11.801Z,75.56
2022-08-17T00:49:38.227Z,75.16
2022-08-17T00:52:15.284Z,75.42
2022-08-17T00:54:44.802Z,75.81
2022-08-17T00:57:18.040Z,75.06
2022-08-17T00:59:51.111Z,75.06
2022-08-17T01:02:34.404Z,75.15
2022-08-17T01:05:10.616Z,75.80
2022-08-17T01:07:37.965Z,75.26
2022-08-17T01:10:07.520Z,75.38
2022-08-17T01:12:54.192Z,74.89
2022-08-17T01:15:20.615Z,75.97
2022-08-17T01:17:47.810Z,75.60
2022-08-17T01:20:14.352Z,75.94
2022-08-17T01:22:40.905Z,75.74
2022-08-17T01:25:08.840Z,76.17
2022-08-17T01:27:36.927Z,75.53
2022-08-17T01:30:57.465Z,75.44
2022-08-17T01:32:54.988Z,74.82
2022-08-17T01:35:21.416Z,75.07
2022-08-17T01:37:47.946Z,75.79
2022-08-17T01:40:33.490Z,75.52
2022-08-17T01:43:19.945Z,74.97
2022-08-17T01:45:48.847Z,74.98
2022-08-17T01:48:34.338Z,75.14
2022-08-17T01:51:01.226Z,75.39
2022-08-17T01:53:36.641Z,75.66
2022-08-17T01:56:09.124Z,75.73
2022-08-17T01:58:36.817Z,75.77
2022-08-17T02:01:05.556Z,75.51
2022-08-17T02:03:34.500Z,76.26
2022-08-17T02:06:01.947Z,75.96
2022-08-17T02:08:36.989Z,75.89
2022-08-17T02:11:11.557Z,76.18
2022-08-17T02:13:38.686Z,75.75
2022-08-17T02:16:05.520Z,76.53
2022-08-17T02:18:31.931Z,76.14
2022-08-17T02:20:58.574Z,76.22
2022-08-17T02:23:28.662Z,75.58
2022-08-17T02:25:57.579Z,75.57
2022-08-17T02:28:23.986Z,76.52
2022-08-17T02:31:02.028Z,76.10
2022-08-17T02:33:42.775Z,76.51
2022-08-17T02:36:12.573Z,76.31
2022-08-17T02:38:40.649Z,76.74
2022-08-17T02:41:07.318Z,76.25
2022-08-17T02:43:34.876Z,76.50
2022-08-17T02:46:01.326Z,76.39
2022-08-17T02:48:31.238Z,76.64
2022-08-17T02:50:59.114Z,76.65
2022-08-17T02:53:25.911Z,76.62
2022-08-17T02:55:52.576Z,76.41
2022-08-17T02:58:34.326Z,76.86
2022-08-17T03:01:06.287Z,75.98
2022-08-17T03:03:33.058Z,75.97
2022-08-17T03:05:59.946Z,75.73
2022-08-17T03:08:26.347Z,76.32
2022-08-17T03:10:53.221Z,76.42
2022-08-17T03:13:20.036Z,76.24
2022-08-17T03:15:47.961Z,76.15
2022-08-17T03:18:24.308Z,76.85
2022-08-17T03:20:52.479Z,76.22
2022-08-17T03:23:18.912Z,77.32
2022-08-17T03:25:53.139Z,77.34
2022-08-17T03:28:20.829Z,76.95
2022-08-17T03:30:47.269Z,77.18
2022-08-17T03:33:14.668Z,77.73
2022-08-17T03:35:42.052Z,78.28
2022-08-17T03:38:10.440Z,79.22
2022-08-17T03:40:56.997Z,78.46
2022-08-17T03:43:24.151Z,79.33
2022-08-17T03:46:26.843Z,78.50
2022-08-17T03:49:13.879Z,78.82
2022-08-17T03:51:59.323Z,78.59
2022-08-17T03:54:44.450Z,78.14
2022-08-17T03:57:11.692Z,78.31
2022-08-17T03:59:39.126Z,78.20
2022-08-17T04:02:09.638Z,77.59
2022-08-17T04:04:37.124Z,77.76
2022-08-17T04:07:04.074Z,78.01
2022-08-17T04:09:30.473Z,78.13
2022-08-17T04:11:57.294Z,77.83
2022-08-17T04:14:31.095Z,77.33
2022-08-17T04:16:57.520Z,77.56
2022-08-17T04:19:23.922Z,77.62
2022-08-17T04:21:50.350Z,77.21
2022-08-17T04:24:16.782Z,77.31
2022-08-17T04:26:52.657Z,77.21
2022-08-17T04:29:21.327Z,76.92
2022-08-17T04:31:48.049Z,77.42
2022-08-17T04:34:14.563Z,76.66
2022-08-17T04:36:47.980Z,75.92
2022-08-17T04:39:16.808Z,76.26
2022-08-17T04:42:01.597Z,76.33
2022-08-17T04:44:37.559Z,76.38
2022-08-17T04:47:04.540Z,76.77
2022-08-17T04:49:30.998Z,76.35
2022-08-17T04:52:00.086Z,76.54
2022-08-17T04:54:29.107Z,76.44
2022-08-17T04:56:55.515Z,76.88
2022-08-17T04:59:22.587Z,77.10
2022-08-17T05:01:51.543Z,76.74
2022-08-17T05:04:33.788Z,76.92
2022-08-17T05:07:01.121Z,76.87
2022-08-17T05:09:27.520Z,77.41
2022-08-17T05:11:55.317Z,76.76
2022-08-17T05:14:32.895Z,76.58
2022-08-17T05:17:01.217Z,76.12
2022-08-17T05:19:28.612Z,75.99
2022-08-17T05:21:55.017Z,76.96
2022-08-17T05:24:38.315Z,77.31
2022-08-17T05:27:06.549Z,77.12
2022-08-17T05:29:35.179Z,77.08
2022-08-17T05:32:38.805Z,76.98
2022-08-17T05:34:59.881Z,78.34
2022-08-17T05:37:26.311Z,77.76
2022-08-17T05:39:54.103Z,77.57
2022-08-17T05:42:21.199Z,77.71
2022-08-17T05:44:47.638Z,77.60
2022-08-17T05:47:14.180Z,78.02
2022-08-17T05:49:40.749Z,78.87
2022-08-17T05:52:13.209Z,78.05
2022-08-17T05:55:10.505Z,78.79
2022-08-17T05:57:47.502Z,77.89
2022-08-17T06:00:37.177Z,78.50
2022-08-17T06:03:18.848Z,78.06
2022-08-17T06:06:19.415Z,78.47
2022-08-17T06:09:01.424Z,77.97
2022-08-17T06:11:44.443Z,78.03
2022-08-17T06:14:38.700Z,78.93
2022-08-17T06:17:11.126Z,79.25
2022-08-17T06:19:59.682Z,78.71
2022-08-17T06:22:36.267Z,78.95
2022-08-17T06:25:10.204Z,78.30
2022-08-17T06:27:54.085Z,78.34
2022-08-17T06:30:27.085Z,77.52
2022-08-17T06:32:59.552Z,78.19
2022-08-17T06:35:37.096Z,76.77
2022-08-17T06:38:37.607Z,76.51
2022-08-17T06:41:37.794Z,76.61
2022-08-17T06:44:49.876Z,76.00
2022-08-17T06:47:28.863Z,76.10
2022-08-17T06:50:17.256Z,75.72
2022-08-17T06:53:11.079Z,75.46
2022-08-17T06:56:06.639Z,75.04
2022-08-17T06:58:35.759Z,75.37
2022-08-17T07:01:12.958Z,74.90
2022-08-17T07:04:11.999Z,76.08
2022-08-17T07:06:51.092Z,75.78
2022-08-17T07:09:26.433Z,75.34
2022-08-17T07:11:57.706Z,75.77
2022-08-17T07:14:51.655Z,75.84
2022-08-17T07:17:20.401Z,76.28
2022-08-17T07:19:49.725Z,75.86
2022-08-17T07:22:27.841Z,75.32
2022-08-17T07:24:58.410Z,76.52
2022-08-17T07:27:28.509Z,74.43
2022-08-17T07:30:10.359Z,74.60
2022-08-17T07:32:45.180Z,72.95
2022-08-17T07:35:15.477Z,72.93
2022-08-17T07:37:55.635Z,71.64
2022-08-17T07:40:24.642Z,71.66
2022-08-17T07:43:04.966Z,71.80
2022-08-17T07:45:50.734Z,71.10
2022-08-17T07:48:22.013Z,70.74
2022-08-17T07:50:50.716Z,71.28
2022-08-17T07:53:19.854Z,71.72
2022-08-17T07:55:46.553Z,71.02
2022-08-17T07:58:19.368Z,71.88
2022-08-17T08:00:46.686Z,72.20
2022-08-17T08:03:20.307Z,71.76
2022-08-17T08:05:56.710Z,71.04
2022-08-17T08:08:35.318Z,72.01
2022-08-17T08:11:09.584Z,70.92
2022-08-17T08:13:42.540Z,70.79
2022-08-17T08:16:19.978Z,70.48
2022-08-17T08:18:55.676Z,71.65
2022-08-17T08:21:48.713Z,71.41
2022-08-17T08:24:36.641Z,72.08
2022-08-17T08:27:42.276Z,71.28
2022-08-17T08:30:14.368Z,70.37
2022-08-17T08:33:12.507Z,70.68
2022-08-17T08:35:49.566Z,70.80
2022-08-17T08:38:15.895Z,71.10
2022-08-17T08:41:10.650Z,70.18
2022-08-17T08:43:50.854Z,69.72
2022-08-17T08:46:36.438Z,70.02
2022-08-17T08:49:33.861Z,71.81
2022-08-17T08:52:22.778Z,72.19
2022-08-17T08:54:59.562Z,74.65
2022-08-17T08:57:37.975Z,75.64
2022-08-17T09:00:20.260Z,75.67
2022-08-17T09:03:06.181Z,75.72
2022-08-17T09:05:52.795Z,75.46
2022-08-17T09:08:44.185Z,79.46
2022-08-17T09:12:01.070Z,81.84
2022-08-17T09:15:17.663Z,83.13
2022-08-17T09:19:01.332Z,83.66
2022-08-17T09:21:01.320Z,85.12
2022-08-17T09:23:39.309Z,84.51
2022-08-17T09:26:24.168Z,81.30
2022-08-17T09:28:53.118Z,82.70
2022-08-17T09:31:26.801Z,81.84
2022-08-17T09:33:59.010Z,84.01
2022-08-17T09:36:31.188Z,82.74
2022-08-17T09:39:02.674Z,82.19
2022-08-17T09:41:49.177Z,79.83
2022-08-17T09:44:23.180Z,78.99
2022-08-17T09:47:01.649Z,79.11
2022-08-17T09:49:36.881Z,77.92
2022-08-17T09:52:22.952Z,77.09
2022-08-17T09:54:51.611Z,79.00
2022-08-17T09:57:32.734Z,82.56
2022-08-17T10:00:28.525Z,79.98
2022-08-17T10:03:30.274Z,78.76
2022-08-17T10:06:02.700Z,77.04
2022-08-17T10:08:57.243Z,72.04
2022-08-17T10:11:57.843Z,69.64
2022-08-17T10:14:37.775Z,69.61
2022-08-17T10:17:13.261Z,67.80
2022-08-17T10:20:03.062Z,68.96
2022-08-17T10:22:56.302Z,72.65
2022-08-17T10:25:54.667Z,71.79
2022-08-17T10:28:30.304Z,71.91
2022-08-17T10:31:31.089Z,73.16
2022-08-17T10:34:06.597Z,73.33
2022-08-17T10:36:54.918Z,74.78
2022-08-17T10:39:36.624Z,77.44
2022-08-17T10:42:30.400Z,78.58
2022-08-17T10:45:05.303Z,75.13
2022-08-17T10:48:05.341Z,74.12
2022-08-17T10:50:57.644Z,73.44
2022-08-17T10:53:48.409Z,77.31
2022-08-17T10:56:15.453Z,78.11
2022-08-17T10:59:00.457Z,77.68
2022-08-17T11:01:33.006Z,78.64
2022-08-17T11:04:19.587Z,77.82
2022-08-17T11:07:02.151Z,77.27
2022-08-17T11:10:03.386Z,77.29
2022-08-17T11:13:03.865Z,75.72
2022-08-17T11:15:52.421Z,76.56
2022-08-17T11:18:29.121Z,76.97
2022-08-17T11:21:43.236Z,77.14
2022-08-17T11:24:24.111Z,76.49
2022-08-17T11:27:18.886Z,77.08
2022-08-17T11:30:01.513Z,77.05
2022-08-17T11:32:37.248Z,75.08
2022-08-17T11:35:21.893Z,77.11
2022-08-17T11:38:16.379Z,76.61
2022-08-17T11:41:15.288Z,75.96
2022-08-17T11:44:02.058Z,76.98
2022-08-17T11:46:57.248Z,75.80
2022-08-17T11:50:11.634Z,74.85
2022-08-17T11:52:42.372Z,76.04
2022-08-17T11:55:39.330Z,75.86
2022-08-17T11:58:37.375Z,76.46
2022-08-17T12:01:13.633Z,77.68
2022-08-17T12:03:54.118Z,78.44
2022-08-17T12:06:24.687Z,78.21
2022-08-17T12:09:02.326Z,77.13
2022-08-17T12:11:55.575Z,76.79
2022-08-17T12:14:51.358Z,77.91
2022-08-17T12:17:26.528Z,76.64
2022-08-17T12:20:15.469Z,76.16
2022-08-17T12:22:56.292Z,77.08
2022-08-17T12:25:46.445Z,77.31
2022-08-17T12:28:31.987Z,78.28
2022-08-17T12:31:02.729Z,76.67
2022-08-17T12:33:29.619Z,77.77
2022-08-17T12:36:05.558Z,77.56
2022-08-17T12:38:37.829Z,77.31
2022-08-17T12:41:27.104Z,78.24
2022-08-17T12:44:02.020Z,80.62
2022-08-17T12:46:33.498Z,78.60
2022-08-17T12:49:35.503Z,78.86
2022-08-17T12:52:19.785Z,79.26
2022-08-17T12:55:06.910Z,80.64
2022-08-17T12:57:39.694Z,78.97
2022-08-17T13:00:21.766Z,79.36
2022-08-17T13:02:57.793Z,78.41
2022-08-17T13:05:28.129Z,77.10
2022-08-17T13:07:56.520Z,78.19
2022-08-17T13:10:35.288Z,77.63
2022-08-17T13:13:05.377Z,77.06
2022-08-17T13:15:44.839Z,78.66
2022-08-17T13:18:38.798Z,80.22
2022-08-17T13:21:11.240Z,78.73
2022-08-17T13:23:38.032Z,78.85
2022-08-17T13:26:15.823Z,78.75
2022-08-17T13:28:49.715Z,80.26
2022-08-17T13:31:28.260Z,79.43
2022-08-17T13:34:13.489Z,80.76
2022-08-17T13:36:41.298Z,80.35
2022-08-17T13:39:18.687Z,80.15
2022-08-17T13:41:46.485Z,80.90
2022-08-17T13:44:37.119Z,79.94
2022-08-17T13:47:17.499Z,81.26
2022-08-17T13:49:48.870Z,81.29
2022-08-17T13:52:38.019Z,80.43
2022-08-17T13:55:14.902Z,81.60
2022-08-17T13:57:46.584Z,84.14
2022-08-17T14:00:34.240Z,85.32
2022-08-17T14:03:03.272Z,84.83
2022-08-17T14:05:31.100Z,84.42
2022-08-17T14:08:06.913Z,83.40
2022-08-17T14:10:36.309Z,84.60
2022-08-17T14:13:03.361Z,86.53
2022-08-17T14:15:55.078Z,83.25
2022-08-17T14:18:18.021Z,81.55
2022-08-17T14:21:02.230Z,85.96
2022-08-17T14:23:32.863Z,84.70
2022-08-17T14:25:59.829Z,81.16
2022-08-17T14:28:26.531Z,83.91
2022-08-17T14:30:54.446Z,84.04
2022-08-17T14:33:24.618Z,83.21
2022-08-17T14:35:53.458Z,83.33
2022-08-17T14:38:20.731Z,81.72
2022-08-17T14:40:47.964Z,81.50
2022-08-17T14:43:15.863Z,82.33
2022-08-17T14:45:42.992Z,82.09
2022-08-17T14:48:10.308Z,84.10
2022-08-17T14:50:40.881Z,80.67
2022-08-17T14:53:09.815Z,81.07
2022-08-17T14:55:39.663Z,82.03
2022-08-17T14:58:07.426Z,82.07
2022-08-17T15:00:34.176Z,79.84
2022-08-17T15:03:01.496Z,80.90
2022-08-17T15:05:31.961Z,82.30
2022-08-17T15:07:59.033Z,83.05
2022-08-17T15:10:26.069Z,81.48
2022-08-17T15:12:52.545Z,81.43
2022-08-17T15:15:19.089Z,81.38
2022-08-17T15:17:46.156Z,81.29
2022-08-17T15:20:15.950Z,81.88
2022-08-17T15:22:43.667Z,81.99
2022-08-17T15:25:12.181Z,80.28
2022-08-17T15:27:39.498Z,82.57
2022-08-17T15:30:07.110Z,82.68
2022-08-17T15:32:38.163Z,82.04
2022-08-17T15:35:08.795Z,82.49
2022-08-17T15:37:35.370Z,85.48
2022-08-17T15:40:02.010Z,83.00
2022-08-17T15:42:29.269Z,84.46
2022-08-17T15:44:55.905Z,88.06
2022-08-17T15:47:23.117Z,87.67
2022-08-17T15:49:50.641Z,85.20
2022-08-17T15:52:23.222Z,87.55
2022-08-17T15:54:58.219Z,88.36
2022-08-17T15:57:25.775Z,88.41
2022-08-17T15:59:58.509Z,86.60
2022-08-17T16:03:14.193Z,87.96
2022-08-17T16:05:22.002Z,85.70
2022-08-17T16:07:51.473Z,89.49
2022-08-17T16:10:19.278Z,91.72
2022-08-17T16:12:47.657Z,86.52
2022-08-17T16:15:15.105Z,87.25
2022-08-17T16:17:41.708Z,85.67
2022-08-17T16:20:10.410Z,85.02
2022-08-17T16:22:48.801Z,84.76
2022-08-17T16:25:20.891Z,88.60
2022-08-17T16:27:50.404Z,86.07
2022-08-17T16:30:17.863Z,84.54
2022-08-17T16:32:45.341Z,84.12
2022-08-17T16:35:16.111Z,85.68
2022-08-17T16:37:45.549Z,83.82
2022-08-17T16:40:14.229Z,85.06
2022-08-17T16:42:42.775Z,87.12
2022-08-17T16:45:14.583Z,86.39
2022-08-17T16:47:41.917Z,85.38
2022-08-17T16:50:11.647Z,87.17
2022-08-17T16:52:40.511Z,88.65
2022-08-17T16:55:09.555Z,86.34
2022-08-17T16:57:50.412Z,85.11
2022-08-17T17:00:19.227Z,84.74
2022-08-17T17:02:47.571Z,87.52
2022-08-17T17:05:42.310Z,85.31
2022-08-17T17:08:13.148Z,86.34
2022-08-17T17:10:47.529Z,86.50
2022-08-17T17:13:25.181Z,87.57
2022-08-17T17:16:14.372Z,89.41
2022-08-17T17:18:49.550Z,88.62
2022-08-17T17:21:23.676Z,89.86
2022-08-17T17:23:57.000Z,89.67
2022-08-17T17:26:45.496Z,90.03
2022-08-17T17:29:58.044Z,89.94
2022-08-17T17:32:55.740Z,89.10
2022-08-17T17:35:31.871Z,88.71
2022-08-17T17:38:04.265Z,87.99
2022-08-17T17:40:44.292Z,92.98
2022-08-17T17:43:37.550Z,93.50
2022-08-17T17:46:27.281Z,93.00
2022-08-17T17:48:56.513Z,91.88
2022-08-17T17:52:06.567Z,94.45
2022-08-17T17:54:53.944Z,94.24
2022-08-17T17:57:58.667Z,95.58
2022-08-17T18:00:34.106Z,95.75
2022-08-17T18:03:25.147Z,95.79
2022-08-17T18:06:01.201Z,93.89
2022-08-17T18:09:19.369Z,96.29
2022-08-17T18:12:19.865Z,95.90
2022-08-17T18:15:07.545Z,96.49
2022-08-17T18:17:36.216Z,95.72
2022-08-17T18:20:06.850Z,93.88
2022-08-17T18:22:33.277Z,94.34
2022-08-17T18:24:59.828Z,94.76
2022-08-17T18:27:38.275Z,96.48
2022-08-17T18:30:10.767Z,93.95
2022-08-17T18:32:42.422Z,93.82
2022-08-17T18:35:08.763Z,94.20
2022-08-17T18:37:49.029Z,92.61
2022-08-17T18:40:19.388Z,94.88
2022-08-17T18:43:08.837Z,93.87
2022-08-17T18:45:38.450Z,94.00
2022-08-17T18:48:16.498Z,93.52
2022-08-17T18:50:42.945Z,94.85
2022-08-17T18:53:36.545Z,92.57
2022-08-17T18:56:27.932Z,91.53
2022-08-17T18:59:23.085Z,89.30
2022-08-17T19:02:10.009Z,89.68
2022-08-17T19:05:00.339Z,90.38
2022-08-17T19:07:33.018Z,93.13
2022-08-17T19:10:08.994Z,89.98
2022-08-17T19:12:43.846Z,90.24
2022-08-17T19:15:14.719Z,90.35
2022-08-17T19:17:53.337Z,94.58
2022-08-17T19:20:26.540Z,95.89
2022-08-17T19:23:12.644Z,95.93
2022-08-17T19:25:46.148Z,96.20
2022-08-17T19:28:29.717Z,96.58
2022-08-17T19:31:03.996Z,96.00
2022-08-17T19:33:32.060Z,94.94
2022-08-17T19:36:18.752Z,97.18
2022-08-17T19:39:10.009Z,95.73
2022-08-17T19:42:03.119Z,96.73
2022-08-17T19:44:40.374Z,96.76
2022-08-17T19:47:36.650Z,96.38
2022-08-17T19:50:18.899Z,97.64
2022-08-17T19:52:59.149Z,96.12
2022-08-17T19:55:32.001Z,95.45
2022-08-17T19:58:21.457Z,94.92
2022-08-17T20:00:51.684Z,95.19
2022-08-17T20:03:30.211Z,95.50
2022-08-17T20:06:15.277Z,96.34
2022-08-17T20:08:53.627Z,96.27
2022-08-17T20:11:37.535Z,96.99
2022-08-17T20:14:13.081Z,97.54
2022-08-17T20:16:39.491Z,98.49
2022-08-17T20:19:25.017Z,96.50
2022-08-17T20:22:03.250Z,96.97
2022-08-17T20:24:50.947Z,96.13
2022-08-17T20:27:31.958Z,96.54
2022-08-17T20:30:06.957Z,97.04
2022-08-17T20:32:52.586Z,97.28
2022-08-17T20:35:28.323Z,97.53
2022-08-17T20:37:59.154Z,96.62
2022-08-17T20:40:38.339Z,97.66
2022-08-17T20:43:29.801Z,97.58
2022-08-17T20:46:15.578Z,98.72
2022-08-17T20:48:46.116Z,98.81
2022-08-17T20:51:22.897Z,98.93
2022-08-17T20:53:49.337Z,100.00
2022-08-17T20:56:46.877Z,99.53
2022-08-17T20:59:25.668Z,99.62
2022-08-17T21:02:18.769Z,99.56
2022-08-17T21:04:52.761Z,100.00
2022-08-17T21:07:30.298Z,100.00
2022-08-17T21:10:17.722Z,100.00
2022-08-17T21:13:06.004Z,100.00
2022-08-17T21:15:43.521Z,99.83
2022-08-17T21:18:44.134Z,100.00
2022-08-17T21:21:17.706Z,100.00
2022-08-17T21:24:16.367Z,100.00
2022-08-17T21:27:17.780Z,100.00
2022-08-17T21:30:10.267Z,100.00
2022-08-17T21:32:41.973Z,100.00
2022-08-17T21:35:12.365Z,100.00
2022-08-17T21:37:53.119Z,100.00
2022-08-17T21:40:25.810Z,100.00
2022-08-17T21:43:00.281Z,100.00
2022-08-17T21:45:30.439Z,100.00
2022-08-17T21:48:19.559Z,100.00
2022-08-17T21:50:57.910Z,100.00
2022-08-17T21:53:53.932Z,100.00
2022-08-17T21:56:32.003Z,100.00
2022-08-17T21:59:00.673Z,100.00
2022-08-17T22:01:57.557Z,100.00
2022-08-17T22:04:28.972Z,100.00
2022-08-17T22:06:58.085Z,100.00
2022-08-17T22:09:28.589Z,100.00
2022-08-17T22:12:07.389Z,100.00
2022-08-17T22:14:53.044Z,100.00
2022-08-17T22:17:35.489Z,100.00
2022-08-17T22:20:06.922Z,100.00
2022-08-17T22:22:57.167Z,100.00
2022-08-17T22:25:26.294Z,100.00
2022-08-17T22:28:00.213Z,100.00
2022-08-17T22:30:34.853Z,99.61
2022-08-17T22:33:31.276Z,100.00
2022-08-17T22:36:33.731Z,100.00
2022-08-17T22:39:04.024Z,100.00
2022-08-17T22:41:48.074Z,100.00
2022-08-17T22:44:26.111Z,100.00
2022-08-17T22:46:55.637Z,100.00
2022-08-17T22:49:29.178Z,100.00
2022-08-17T22:52:16.198Z,100.00
2022-08-17T22:55:08.320Z,100.00
2022-08-17T22:57:56.555Z,100.00
2022-08-17T23:00:41.084Z,100.00
2022-08-17T23:03:12.695Z,100.00
2022-08-17T23:05:43.493Z,100.00
2022-08-17T23:08:11.527Z,100.00
2022-08-17T23:10:41.225Z,100.00
2022-08-17T23:13:12.022Z,100.00
2022-08-17T23:15:40.606Z,100.00
2022-08-17T23:18:07.411Z,99.66
2022-08-17T23:20:36.313Z,99.45
2022-08-17T23:23:06.733Z,100.00
2022-08-17T23:25:35.029Z,100.00
2022-08-17T23:28:04.301Z,100.00
2022-08-17T23:30:33.078Z,100.00
2022-08-17T23:33:14.252Z,100.00
2022-08-17T23:35:41.125Z,100.00
2022-08-17T23:38:09.742Z,100.00
2022-08-17T23:40:37.677Z,100.00
2022-08-17T23:43:15.389Z,100.00
2022-08-17T23:45:53.946Z,99.64
2022-08-17T23:48:28.545Z,99.80
2022-08-17T23:51:04.721Z,99.19
2022-08-17T23:53:34.442Z,99.68
2022-08-17T23:56:09.296Z,99.14
2022-08-17T23:58:38.350Z,99.08
